createdAt,value
2022-07-29T00:01:05.716Z,14.10
2022-07-29T00:03:32.940Z,14.10
2022-07-29T00:06:00.830Z,14.00
2022-07-29T00:08:28.005Z,14.00
2022-07-29T00:10:55.059Z,14.00
2022-07-29T00:13:31.831Z,14.00
2022-07-29T00:16:04.435Z,14.00
2022-07-29T00:18:33.024Z,13.90
2022-07-29T00:21:00.563Z,13.90
2022-07-29T00:23:27.960Z,13.80
2022-07-29T00:25:55.212Z,14.60
2022-07-29T00:28:22.245Z,13.80
2022-07-29T00:30:49.275Z,13.80
2022-07-29T00:33:16.669Z,13.80
2022-07-29T00:35:47.337Z,13.80
2022-07-29T00:38:16.238Z,13.80
2022-07-29T00:40:45.713Z,13.80
2022-07-29T00:43:14.763Z,13.70
2022-07-29T00:45:43.085Z,13.70
2022-07-29T00:48:10.657Z,13.80
2022-07-29T00:50:38.660Z,13.70
2022-07-29T00:53:08.451Z,13.70
2022-07-29T00:55:36.416Z,13.70
2022-07-29T00:58:04.245Z,13.70
2022-07-29T01:00:31.702Z,13.70
2022-07-29T01:02:59.034Z,13.70
2022-07-29T01:05:48.484Z,13.60
2022-07-29T01:08:16.814Z,13.70
2022-07-29T01:10:44.960Z,13.60
2022-07-29T01:13:12.938Z,13.60
2022-07-29T01:15:49.303Z,13.60
2022-07-29T01:18:29.025Z,13.60
2022-07-29T01:21:11.125Z,13.60
2022-07-29T01:23:57.596Z,13.60
2022-07-29T01:26:36.510Z,13.50
2022-07-29T01:29:09.592Z,13.50
2022-07-29T01:32:00.896Z,13.50
2022-07-29T01:35:10.375Z,13.50
2022-07-29T01:37:40.506Z,13.50
2022-07-29T01:40:19.852Z,13.40
2022-07-29T01:42:52.542Z,13.40
2022-07-29T01:45:24.447Z,13.40
2022-07-29T01:48:16.167Z,13.40
2022-07-29T01:51:00.865Z,13.40
2022-07-29T01:53:51.414Z,13.40
2022-07-29T01:56:20.886Z,13.30
2022-07-29T01:58:50.207Z,13.30
2022-07-29T02:01:18.572Z,13.30
2022-07-29T02:03:47.702Z,13.30
2022-07-29T02:06:19.624Z,13.30
2022-07-29T02:08:48.011Z,13.20
2022-07-29T02:11:15.749Z,13.20
2022-07-29T02:13:44.783Z,13.20
2022-07-29T02:16:13.073Z,13.20
2022-07-29T02:18:43.432Z,13.20
2022-07-29T02:21:14.885Z,13.20
2022-07-29T02:23:50.814Z,13.10
2022-07-29T02:26:21.275Z,13.10
2022-07-29T02:28:55.014Z,13.10
2022-07-29T02:31:26.698Z,13.10
2022-07-29T02:33:55.181Z,13.10
2022-07-29T02:36:23.998Z,13.10
2022-07-29T02:38:52.495Z,13.00
2022-07-29T02:41:46.789Z,13.00
2022-07-29T02:44:20.370Z,13.00
2022-07-29T02:59:43.114Z,13.30
2022-07-29T03:02:12.244Z,13.10
2022-07-29T03:04:42.574Z,13.10
2022-07-29T03:07:11.530Z,13.10
2022-07-29T03:09:39.989Z,13.10
2022-07-29T03:12:07.492Z,14.00
2022-07-29T03:14:36.042Z,13.10
2022-07-29T03:17:04.112Z,13.20
2022-07-29T03:19:32.104Z,13.20
2022-07-29T03:21:59.745Z,13.20
2022-07-29T03:24:32.842Z,15.20
2022-07-29T03:27:00.762Z,13.40
2022-07-29T03:29:33.253Z,13.50
2022-07-29T03:32:07.372Z,13.60
2022-07-29T03:34:38.684Z,13.70
2022-07-29T03:37:07.251Z,13.80
2022-07-29T03:39:39.367Z,14.00
2022-07-29T03:42:09.357Z,14.20
2022-07-29T03:44:38.172Z,14.40
2022-07-29T03:47:07.546Z,15.40
2022-07-29T03:49:37.962Z,16.90
2022-07-29T03:52:06.267Z,17.60
2022-07-29T03:54:33.796Z,18.00
2022-07-29T03:57:06.709Z,18.80
2022-07-29T03:59:37.272Z,19.50
2022-07-29T04:02:06.489Z,19.60
2022-07-29T04:04:35.587Z,20.30
2022-07-29T04:07:02.772Z,21.60
2022-07-29T04:09:30.233Z,23.20
2022-07-29T04:12:03.023Z,24.30
2022-07-29T04:14:33.234Z,25.40
2022-07-29T04:17:01.857Z,26.70
2022-07-29T04:19:29.202Z,27.40
2022-07-29T04:21:57.063Z,27.00
2022-07-29T04:24:24.169Z,26.00
2022-07-29T04:26:51.482Z,26.10
2022-07-29T04:29:19.078Z,26.50
2022-07-29T04:31:46.420Z,27.50
2022-07-29T04:34:14.824Z,28.80
2022-07-29T04:36:42.187Z,29.90
2022-07-29T04:39:09.194Z,30.80
2022-07-29T04:41:36.243Z,31.40
2022-07-29T04:44:06.165Z,31.90
2022-07-29T04:46:35.266Z,32.40
2022-07-29T04:49:04.040Z,33.20
2022-07-29T04:51:31.613Z,33.30
2022-07-29T04:53:58.828Z,33.30
2022-07-29T04:56:26.065Z,32.70
2022-07-29T04:58:53.657Z,32.20
2022-07-29T05:01:21.045Z,33.20
2022-07-29T05:03:48.154Z,32.60
2022-07-29T05:06:15.604Z,33.60
2022-07-29T05:08:42.729Z,34.70
2022-07-29T05:11:11.643Z,35.80
2022-07-29T05:13:45.898Z,37.00
2022-07-29T05:16:14.919Z,37.10
2022-07-29T05:18:43.199Z,36.50
2022-07-29T05:21:10.747Z,36.50
2022-07-29T05:23:37.849Z,35.50
2022-07-29T05:26:05.266Z,35.70
2022-07-29T05:28:36.231Z,35.60
2022-07-29T05:31:03.510Z,35.20
2022-07-29T05:33:35.771Z,35.20
2022-07-29T05:36:08.177Z,35.00
2022-07-29T05:38:36.977Z,34.70
2022-07-29T05:41:05.714Z,34.90
2022-07-29T05:43:33.367Z,35.20
2022-07-29T05:46:00.775Z,35.50
2022-07-29T05:48:30.233Z,35.50
2022-07-29T05:50:57.454Z,36.50
2022-07-29T05:53:24.907Z,37.30
2022-07-29T05:55:53.138Z,37.40
2022-07-29T05:58:20.717Z,37.70
2022-07-29T06:00:48.075Z,37.50
2022-07-29T06:03:15.207Z,36.10
2022-07-29T06:05:42.305Z,35.50
2022-07-29T06:08:09.577Z,35.10
2022-07-29T06:10:36.750Z,35.40
2022-07-29T06:13:04.347Z,35.90
2022-07-29T06:15:31.722Z,36.50
2022-07-29T06:18:01.104Z,36.90
2022-07-29T06:20:31.391Z,37.60
2022-07-29T06:23:01.028Z,37.70
2022-07-29T06:25:31.796Z,37.20
2022-07-29T06:27:59.223Z,35.40
2022-07-29T06:30:26.439Z,35.00
2022-07-29T06:32:53.782Z,36.20
2022-07-29T06:35:41.202Z,37.40
2022-07-29T06:38:14.906Z,37.30
2022-07-29T06:41:01.556Z,38.50
2022-07-29T06:43:42.643Z,38.20
2022-07-29T06:46:19.807Z,38.40
2022-07-29T06:48:48.629Z,38.40
2022-07-29T06:51:17.296Z,38.70
2022-07-29T06:53:59.895Z,39.30
2022-07-29T06:56:38.393Z,38.30
2022-07-29T06:59:09.069Z,38.30
2022-07-29T07:01:40.760Z,38.30
2022-07-29T07:04:09.935Z,38.30
2022-07-29T07:06:37.985Z,38.40
2022-07-29T07:09:05.250Z,36.80
2022-07-29T07:11:32.670Z,34.00
2022-07-29T07:14:03.788Z,32.50
2022-07-29T07:16:32.767Z,31.80
2022-07-29T07:19:00.626Z,32.50
2022-07-29T07:21:30.485Z,33.80
2022-07-29T07:23:59.050Z,34.10
2022-07-29T07:26:26.971Z,34.70
2022-07-29T07:28:54.310Z,34.70
2022-07-29T07:31:21.708Z,34.80
2022-07-29T07:33:49.187Z,34.60
2022-07-29T07:36:16.225Z,33.90
2022-07-29T07:38:43.536Z,32.90
2022-07-29T07:41:11.166Z,31.80
2022-07-29T07:43:38.892Z,30.50
2022-07-29T07:46:06.381Z,29.80
2022-07-29T07:48:35.854Z,29.40
2022-07-29T07:51:03.228Z,29.20
2022-07-29T07:53:31.556Z,29.30
2022-07-29T07:56:15.476Z,29.40
2022-07-29T07:58:42.803Z,29.40
2022-07-29T08:01:10.865Z,29.20
2022-07-29T08:03:38.725Z,28.50
2022-07-29T08:06:06.637Z,28.30
2022-07-29T08:08:34.315Z,28.10
2022-07-29T08:11:06.942Z,27.70
2022-07-29T08:13:37.625Z,27.80
2022-07-29T08:16:13.171Z,27.90
2022-07-29T08:18:42.688Z,27.80
2022-07-29T08:21:09.873Z,27.90
2022-07-29T08:23:47.160Z,27.90
2022-07-29T08:26:17.004Z,28.10
2022-07-29T08:28:50.499Z,27.80
2022-07-29T08:31:19.075Z,27.80
2022-07-29T08:33:46.216Z,27.60
2022-07-29T08:36:14.274Z,27.50
2022-07-29T08:38:41.600Z,27.50
2022-07-29T08:41:08.760Z,27.50
2022-07-29T08:43:38.529Z,27.50
2022-07-29T08:46:05.967Z,27.50
2022-07-29T08:48:34.279Z,27.50
2022-07-29T08:51:02.734Z,27.40
2022-07-29T08:53:32.915Z,27.20
2022-07-29T08:56:00.413Z,27.00
2022-07-29T08:58:32.312Z,26.90
2022-07-29T09:01:04.579Z,26.80
2022-07-29T09:03:36.933Z,26.90
2022-07-29T09:06:04.995Z,26.80
2022-07-29T09:08:33.865Z,26.80
2022-07-29T09:11:03.895Z,27.00
2022-07-29T09:13:33.111Z,26.90
2022-07-29T09:16:03.362Z,27.00
2022-07-29T09:18:41.059Z,27.00
2022-07-29T09:21:37.947Z,26.60
2022-07-29T09:24:15.232Z,26.40
2022-07-29T09:26:45.664Z,26.50
2022-07-29T09:29:18.346Z,26.50
2022-07-29T09:31:47.921Z,26.60
2022-07-29T09:34:18.158Z,26.40
2022-07-29T09:36:47.560Z,26.40
2022-07-29T09:39:17.985Z,26.50
2022-07-29T09:41:54.407Z,26.60
2022-07-29T09:44:23.749Z,26.70
2022-07-29T09:47:00.058Z,26.90
2022-07-29T09:49:27.762Z,27.00
2022-07-29T09:52:12.202Z,27.10
2022-07-29T09:54:41.312Z,27.10
2022-07-29T09:57:22.172Z,27.10
2022-07-29T10:00:20.030Z,26.80
2022-07-29T10:02:48.237Z,26.80
2022-07-29T10:05:24.758Z,26.90
2022-07-29T10:07:57.351Z,27.10
2022-07-29T10:10:34.859Z,27.20
2022-07-29T10:13:08.014Z,27.40
2022-07-29T10:15:42.044Z,27.60
2022-07-29T10:18:10.442Z,27.60
2022-07-29T10:20:38.662Z,27.40
2022-07-29T10:23:06.803Z,27.60
2022-07-29T10:25:34.646Z,27.60
2022-07-29T10:28:01.764Z,27.60
2022-07-29T10:30:29.254Z,27.60
2022-07-29T10:33:06.180Z,27.60
2022-07-29T10:36:00.892Z,27.50
2022-07-29T10:38:28.085Z,27.50
2022-07-29T10:41:26.386Z,27.50
2022-07-29T10:43:57.966Z,27.60
2022-07-29T10:46:27.166Z,27.80
2022-07-29T10:49:11.190Z,27.60
2022-07-29T10:52:00.273Z,27.50
2022-07-29T10:54:37.339Z,27.10
2022-07-29T10:57:53.140Z,26.90
2022-07-29T11:00:16.846Z,26.80
2022-07-29T11:02:50.005Z,26.80
2022-07-29T11:05:20.209Z,26.80
2022-07-29T11:08:20.172Z,26.90
2022-07-29T11:11:17.386Z,27.10
2022-07-29T11:13:46.434Z,27.20
2022-07-29T11:16:15.998Z,27.40
2022-07-29T11:19:13.185Z,27.30
2022-07-29T11:21:53.888Z,27.50
2022-07-29T11:24:30.247Z,27.80
2022-07-29T11:27:20.060Z,27.90
2022-07-29T11:29:53.507Z,27.70
2022-07-29T11:32:22.734Z,27.60
2022-07-29T11:35:37.073Z,27.60
2022-07-29T11:38:23.740Z,27.90
2022-07-29T11:41:18.865Z,28.30
2022-07-29T11:43:57.028Z,28.10
2022-07-29T11:46:42.723Z,28.20
2022-07-29T11:49:13.941Z,28.40
2022-07-29T11:51:48.575Z,28.50
2022-07-29T11:54:27.940Z,28.70
2022-07-29T11:56:56.076Z,28.30
2022-07-29T11:59:23.487Z,28.40
2022-07-29T12:04:53.948Z,28.00
2022-07-29T12:07:35.560Z,28.10
2022-07-29T12:10:04.841Z,28.20
2022-07-29T12:12:35.652Z,28.40
2022-07-29T12:15:20.370Z,28.20
2022-07-29T12:17:49.070Z,28.50
2022-07-29T12:20:28.466Z,28.70
2022-07-29T12:23:05.777Z,27.50
2022-07-29T12:25:35.606Z,28.40
2022-07-29T12:28:05.901Z,28.40
2022-07-29T12:30:49.626Z,28.30
2022-07-29T12:33:20.542Z,28.20
2022-07-29T12:36:06.301Z,28.00
2022-07-29T12:38:36.169Z,27.90
2022-07-29T12:41:04.733Z,27.80
2022-07-29T12:43:32.626Z,27.80
2022-07-29T12:46:13.572Z,27.80
2022-07-29T12:48:43.318Z,27.80
2022-07-29T12:51:15.276Z,28.00
2022-07-29T12:54:02.327Z,28.10
2022-07-29T12:56:42.403Z,28.20
2022-07-29T12:59:16.901Z,28.20
2022-07-29T13:01:45.155Z,28.20
2022-07-29T13:04:24.617Z,28.10
2022-07-29T13:07:04.894Z,28.10
2022-07-29T13:09:42.952Z,28.30
2022-07-29T13:12:12.548Z,28.40
2022-07-29T13:14:46.036Z,28.30
2022-07-29T13:17:16.563Z,28.10
2022-07-29T13:19:44.872Z,28.30
2022-07-29T13:22:16.075Z,28.40
2022-07-29T13:24:53.582Z,28.50
2022-07-29T13:27:23.956Z,28.30
2022-07-29T13:29:54.255Z,28.20
2022-07-29T13:32:27.721Z,27.70
2022-07-29T13:35:07.412Z,27.30
2022-07-29T13:37:39.105Z,27.10
2022-07-29T13:40:08.105Z,27.00
2022-07-29T13:42:35.665Z,26.90
2022-07-29T13:45:03.483Z,26.70
2022-07-29T13:47:32.727Z,26.60
2022-07-29T13:50:02.213Z,26.80
2022-07-29T13:52:29.730Z,26.40
2022-07-29T13:54:57.154Z,26.40
2022-07-29T13:57:24.902Z,26.30
2022-07-29T13:59:54.347Z,26.30
2022-07-29T14:02:25.663Z,26.40
2022-07-29T14:04:56.794Z,26.50
2022-07-29T14:07:24.504Z,26.50
2022-07-29T14:09:52.064Z,26.40
2022-07-29T14:12:20.053Z,26.30
2022-07-29T14:14:47.967Z,26.30
2022-07-29T14:17:16.022Z,26.10
2022-07-29T14:19:43.936Z,25.90
2022-07-29T14:22:11.222Z,25.80
2022-07-29T14:24:39.260Z,25.70
2022-07-29T14:27:07.943Z,25.60
2022-07-29T14:29:38.267Z,25.30
2022-07-29T14:32:11.146Z,25.10
2022-07-29T14:34:39.271Z,25.20
2022-07-29T14:37:07.103Z,25.20
2022-07-29T14:39:42.089Z,25.10
2022-07-29T14:42:11.548Z,25.20
2022-07-29T14:44:42.377Z,25.30
2022-07-29T14:47:09.570Z,25.20
2022-07-29T14:49:36.842Z,25.20
2022-07-29T14:52:04.717Z,25.10
2022-07-29T14:54:31.890Z,25.00
2022-07-29T14:56:59.278Z,24.80
2022-07-29T14:59:27.258Z,24.70
2022-07-29T15:01:54.863Z,24.70
2022-07-29T15:04:22.329Z,24.70
2022-07-29T15:06:49.704Z,24.50
2022-07-29T15:09:17.486Z,24.40
2022-07-29T15:11:45.326Z,24.40
2022-07-29T15:14:12.442Z,24.30
2022-07-29T15:16:43.531Z,24.30
2022-07-29T15:19:11.884Z,24.40
2022-07-29T15:21:48.596Z,24.40
2022-07-29T15:24:20.159Z,24.50
2022-07-29T15:26:48.108Z,24.70
2022-07-29T15:29:16.247Z,24.90
2022-07-29T15:31:44.321Z,25.10
2022-07-29T15:34:11.764Z,25.20
2022-07-29T15:36:55.532Z,25.20
2022-07-29T15:39:23.386Z,25.40
2022-07-29T15:41:50.861Z,25.50
2022-07-29T15:44:18.745Z,25.50
2022-07-29T15:47:04.291Z,25.60
2022-07-29T15:49:48.725Z,25.60
2022-07-29T15:52:25.447Z,25.60
2022-07-29T15:54:55.617Z,25.60
2022-07-29T15:57:23.919Z,25.60
2022-07-29T15:59:51.951Z,25.60
2022-07-29T16:02:19.041Z,25.40
2022-07-29T16:04:46.494Z,25.30
2022-07-29T16:07:14.332Z,25.10
2022-07-29T16:09:42.696Z,25.10
2022-07-29T16:12:14.941Z,25.00
2022-07-29T16:14:43.985Z,24.80
2022-07-29T16:17:14.258Z,24.70
2022-07-29T16:19:43.658Z,24.60
2022-07-29T16:22:11.695Z,24.80
2022-07-29T16:24:39.361Z,24.50
2022-07-29T16:27:06.750Z,24.50
2022-07-29T16:29:34.266Z,24.50
2022-07-29T16:32:01.894Z,24.40
2022-07-29T16:34:29.711Z,24.50
2022-07-29T16:36:56.868Z,24.40
2022-07-29T16:39:24.273Z,24.30
2022-07-29T16:41:51.475Z,24.20
2022-07-29T16:44:18.625Z,24.20
2022-07-29T16:46:46.054Z,24.10
2022-07-29T16:49:19.189Z,24.00
2022-07-29T16:51:48.048Z,24.00
2022-07-29T16:54:15.522Z,23.90
2022-07-29T16:56:42.962Z,23.90
2022-07-29T16:59:10.337Z,23.90
2022-07-29T17:01:37.595Z,23.80
2022-07-29T17:04:07.877Z,23.70
2022-07-29T17:06:40.196Z,23.60
2022-07-29T17:09:09.234Z,23.50
2022-07-29T17:11:51.698Z,23.40
2022-07-29T17:14:39.657Z,23.30
2022-07-29T17:17:13.815Z,23.30
2022-07-29T17:19:44.006Z,23.20
2022-07-29T17:22:15.868Z,23.20
2022-07-29T17:24:46.483Z,23.10
2022-07-29T17:27:14.955Z,23.00
2022-07-29T17:29:42.277Z,22.90
2022-07-29T17:32:10.682Z,22.90
2022-07-29T17:34:39.707Z,23.30
2022-07-29T17:37:09.394Z,22.80
2022-07-29T17:39:41.379Z,22.70
2022-07-29T17:42:13.717Z,22.60
2022-07-29T17:44:41.405Z,22.50
2022-07-29T17:47:15.904Z,22.40
2022-07-29T17:49:45.485Z,22.40
2022-07-29T17:52:12.738Z,22.30
2022-07-29T17:54:42.475Z,22.20
2022-07-29T17:57:09.753Z,22.20
2022-07-29T17:59:36.840Z,22.10
2022-07-29T18:02:04.164Z,22.00
2022-07-29T18:04:31.589Z,21.90
2022-07-29T18:06:58.927Z,21.90
2022-07-29T18:09:26.255Z,21.80
2022-07-29T18:11:53.778Z,21.70
2022-07-29T18:14:20.858Z,21.60
2022-07-29T18:16:48.250Z,21.60
2022-07-29T18:19:16.159Z,21.40
2022-07-29T18:21:51.412Z,21.50
2022-07-29T18:24:25.595Z,21.30
2022-07-29T18:26:53.815Z,21.20
2022-07-29T18:29:21.550Z,21.60
2022-07-29T18:31:48.956Z,21.10
2022-07-29T18:34:17.085Z,21.00
2022-07-29T18:36:45.871Z,20.90
2022-07-29T18:39:20.811Z,20.80
2022-07-29T18:41:51.210Z,20.70
2022-07-29T18:44:22.735Z,20.70
2022-07-29T18:46:51.773Z,20.60
2022-07-29T18:49:19.693Z,20.60
2022-07-29T18:51:47.431Z,22.10
2022-07-29T18:54:17.518Z,20.40
2022-07-29T18:56:46.155Z,20.40
2022-07-29T18:59:17.007Z,20.30
2022-07-29T19:01:44.546Z,20.30
2022-07-29T19:04:11.890Z,20.20
2022-07-29T19:06:40.841Z,20.10
2022-07-29T19:09:08.827Z,20.00
2022-07-29T19:11:37.102Z,20.00
2022-07-29T19:14:05.534Z,20.00
2022-07-29T19:16:33.096Z,19.90
2022-07-29T19:19:03.365Z,19.80
2022-07-29T19:21:30.607Z,19.80
2022-07-29T19:24:04.256Z,19.80
2022-07-29T19:26:36.755Z,19.70
2022-07-29T19:29:04.572Z,19.70
2022-07-29T19:31:31.730Z,19.60
2022-07-29T19:33:59.182Z,19.60
2022-07-29T19:36:29.910Z,20.60
2022-07-29T19:38:57.425Z,19.60
2022-07-29T19:41:24.760Z,19.50
2022-07-29T19:43:53.177Z,19.50
2022-07-29T19:46:22.030Z,19.40
2022-07-29T19:48:50.689Z,19.70
2022-07-29T19:51:17.847Z,19.30
2022-07-29T19:53:44.987Z,19.30
2022-07-29T19:56:12.517Z,19.20
2022-07-29T19:58:41.205Z,19.20
2022-07-29T20:01:10.206Z,19.20
2022-07-29T20:03:44.765Z,19.20
2022-07-29T20:06:12.736Z,19.10
2022-07-29T20:08:40.264Z,19.10
2022-07-29T20:11:07.452Z,19.00
2022-07-29T20:13:35.352Z,19.00
2022-07-29T20:16:05.706Z,19.00
2022-07-29T20:18:33.067Z,19.00
2022-07-29T20:21:01.502Z,19.60
2022-07-29T20:23:33.241Z,18.90
2022-07-29T20:26:01.210Z,18.90
2022-07-29T20:28:28.547Z,18.90
2022-07-29T20:30:55.881Z,19.90
2022-07-29T20:33:23.106Z,18.80
2022-07-29T20:35:50.292Z,18.80
2022-07-29T20:38:18.455Z,19.00
2022-07-29T20:40:45.798Z,18.70
2022-07-29T20:43:13.078Z,18.70
2022-07-29T20:45:40.506Z,18.70
2022-07-29T20:48:08.216Z,18.50
2022-07-29T20:50:35.955Z,18.60
2022-07-29T20:53:03.463Z,18.50
2022-07-29T20:55:32.075Z,18.50
2022-07-29T20:57:59.262Z,18.40
2022-07-29T21:00:26.812Z,18.40
2022-07-29T21:02:54.337Z,18.30
2022-07-29T21:05:21.577Z,20.10
2022-07-29T21:07:54.310Z,18.30
2022-07-29T21:10:23.739Z,18.30
2022-07-29T21:12:51.157Z,18.10
2022-07-29T21:15:20.758Z,18.10
2022-07-29T21:17:48.452Z,18.10
2022-07-29T21:20:18.108Z,18.10
2022-07-29T21:22:45.751Z,18.00
2022-07-29T21:25:12.950Z,18.00
2022-07-29T21:27:58.853Z,18.00
2022-07-29T21:30:25.985Z,18.00
2022-07-29T21:32:53.417Z,18.00
2022-07-29T21:36:01.780Z,17.90
2022-07-29T21:38:07.838Z,18.20
2022-07-29T21:40:35.220Z,17.90
2022-07-29T21:43:02.275Z,17.80
2022-07-29T21:45:30.502Z,17.80
2022-07-29T21:47:57.657Z,17.90
2022-07-29T21:50:24.844Z,17.90
2022-07-29T21:52:52.190Z,17.80
2022-07-29T21:55:19.551Z,19.50
2022-07-29T21:57:50.253Z,17.70
2022-07-29T22:00:17.626Z,17.70
2022-07-29T22:02:45.417Z,17.70
2022-07-29T22:05:13.440Z,17.60
2022-07-29T22:07:55.620Z,17.60
2022-07-29T22:10:25.849Z,17.60
2022-07-29T22:12:54.512Z,17.60
2022-07-29T22:15:22.388Z,18.70
2022-07-29T22:17:50.306Z,17.80
2022-07-29T22:20:17.771Z,17.50
2022-07-29T22:22:44.849Z,17.40
2022-07-29T22:25:12.025Z,17.40
2022-07-29T22:27:39.433Z,17.40
2022-07-29T22:30:08.873Z,17.30
2022-07-29T22:32:37.088Z,17.30
2022-07-29T22:35:04.973Z,17.20
2022-07-29T22:37:32.169Z,17.20
2022-07-29T22:39:59.320Z,17.20
2022-07-29T22:42:26.868Z,17.10
2022-07-29T22:44:54.707Z,17.10
2022-07-29T22:47:39.033Z,17.10
2022-07-29T22:50:09.520Z,17.00
2022-07-29T22:52:36.938Z,16.90
2022-07-29T22:55:05.323Z,16.90
2022-07-29T22:57:32.683Z,16.80
2022-07-29T23:00:02.241Z,16.80
2022-07-29T23:02:30.381Z,16.70
2022-07-29T23:04:57.801Z,16.60
2022-07-29T23:07:24.811Z,16.60
2022-07-29T23:09:52.017Z,16.60
2022-07-29T23:12:19.249Z,16.50
2022-07-29T23:14:46.359Z,16.50
2022-07-29T23:17:13.508Z,16.40
2022-07-29T23:19:40.901Z,16.40
2022-07-29T23:22:07.930Z,16.30
2022-07-29T23:24:35.185Z,17.10
2022-07-29T23:27:02.833Z,16.00
2022-07-29T23:29:32.775Z,16.20
2022-07-29T23:32:03.674Z,16.20
2022-07-29T23:34:30.774Z,16.10
2022-07-29T23:36:58.306Z,16.10
2022-07-29T23:39:25.912Z,16.10
2022-07-29T23:41:53.047Z,16.80
2022-07-29T23:44:20.210Z,16.00
2022-07-29T23:46:47.495Z,16.00
2022-07-29T23:49:14.767Z,16.00
2022-07-29T23:51:41.941Z,16.00
2022-07-29T23:54:09.538Z,17.10
2022-07-29T23:56:36.572Z,15.90
2022-07-29T23:59:05.729Z,16.70
